Time;durP1;ratioP1;P1;durP2;ratioP2;P2;SDS_P1;SDS_P2;PMS_P1;PMS_P2;Temp;Humidity;BMP_temperature;BMP_pressure;BME280_temperature;BME280_humidity;BME280_pressure;Samples;Min_cycle;Max_cycle;Signal;HPM_P1;HPM_P2
2022/04/06 00:01:09;;;;;;;35.13;19.10;;;10.70;90.00;;;;;;5090685;28;20035;-60
2022/04/06 00:03:35;;;;;;;36.08;18.33;;;10.70;90.00;;;;;;5069605;28;20028;-60
2022/04/06 00:06:01;;;;;;;31.35;17.33;;;10.70;90.00;;;;;;5074260;28;20475;-60
2022/04/06 00:08:26;;;;;;;33.58;17.27;;;10.70;90.00;;;;;;5090145;28;20036;-59
2022/04/06 00:10:52;;;;;;;28.25;14.50;;;10.70;90.00;;;;;;5090089;28;20390;-59
2022/04/06 00:13:18;;;;;;;33.70;16.98;;;10.70;89.90;;;;;;5091006;28;20444;-59
2022/04/06 00:15:43;;;;;;;27.23;14.98;;;10.70;89.90;;;;;;5090393;28;20020;-59
2022/04/06 00:18:09;;;;;;;30.42;15.95;;;10.60;89.80;;;;;;5089096;28;20039;-58
2022/04/06 00:20:35;;;;;;;31.90;15.38;;;10.70;89.80;;;;;;5090217;28;20040;-58
2022/04/06 00:23:01;;;;;;;28.27;14.50;;;10.70;89.80;;;;;;5090652;28;20035;-59
2022/04/06 00:25:27;;;;;;;34.35;14.98;;;10.60;89.70;;;;;;5085549;28;20112;-59
2022/04/06 00:27:52;;;;;;;27.30;14.45;;;10.70;89.60;;;;;;5074647;28;20033;-60
2022/04/06 00:30:18;;;;;;;31.15;14.80;;;10.60;89.40;;;;;;5084153;28;20029;-60
2022/04/06 00:32:44;;;;;;;29.42;14.38;;;10.60;89.30;;;;;;5088210;28;20100;-59
2022/04/06 00:38:01;;;;;;;28.98;14.10;;;10.60;89.30;;;;;;5088910;28;20502;-59
2022/04/06 00:40:27;;;;;;;27.35;13.30;;;10.60;89.20;;;;;;5090090;28;20042;-59
2022/04/06 00:42:56;;;;;;;23.08;14.20;;;10.60;89.10;;;;;;5091083;28;20024;-61
2022/04/06 00:45:23;;;;;;;23.02;12.55;;;10.60;89.00;;;;;;5076756;28;20391;-59
2022/04/06 00:47:50;;;;;;;28.80;13.13;;;10.60;88.90;;;;;;5120574;27;20040;-59
2022/04/06 00:50:17;;;;;;;25.95;13.02;;;10.70;88.80;;;;;;5089378;28;20062;-59
2022/04/06 00:52:44;;;;;;;24.70;13.02;;;10.70;88.80;;;;;;5088443;28;20024;-59
2022/04/06 00:55:12;;;;;;;23.92;12.75;;;10.70;88.70;;;;;;5089297;28;20479;-59
2022/04/06 00:57:38;;;;;;;26.73;13.05;;;10.70;88.70;;;;;;5088857;28;20024;-60
2022/04/06 01:00:06;;;;;;;25.17;12.65;;;10.70;88.60;;;;;;5090088;28;20032;-60
2022/04/06 01:02:32;;;;;;;27.23;12.23;;;10.70;88.60;;;;;;5088585;28;20073;-61
2022/04/06 01:04:57;;;;;;;28.33;12.05;;;10.70;88.50;;;;;;5089691;28;20148;-60
2022/04/06 01:07:24;;;;;;;28.75;13.93;;;10.70;88.40;;;;;;5087541;28;20544;-61
2022/04/06 01:09:49;;;;;;;29.85;12.80;;;10.70;88.30;;;;;;5086729;28;20055;-61
2022/04/06 01:12:16;;;;;;;26.08;14.05;;;10.60;88.30;;;;;;5088533;28;20020;-61
2022/04/06 01:14:42;;;;;;;29.75;14.13;;;10.60;88.40;;;;;;5089311;28;20020;-59
2022/04/06 01:17:09;;;;;;;25.88;13.15;;;10.60;88.20;;;;;;5089833;28;20038;-59
2022/04/06 01:19:39;;;;;;;30.95;14.50;;;10.60;88.20;;;;;;5089004;28;20044;-59
2022/04/06 01:22:10;;;;;;;29.52;13.20;;;10.60;88.20;;;;;;5088894;28;20028;-59
2022/04/06 01:24:36;;;;;;;24.42;13.40;;;10.50;88.10;;;;;;5089099;28;20100;-59
2022/04/06 01:27:02;;;;;;;28.42;12.02;;;10.60;88.20;;;;;;5087395;28;20028;-61
2022/04/06 01:29:28;;;;;;;28.27;12.82;;;10.60;88.30;;;;;;5088660;28;20032;-61
2022/04/06 01:31:54;;;;;;;24.63;12.43;;;10.50;88.20;;;;;;5088997;28;20380;-61
2022/04/06 01:34:20;;;;;;;26.67;12.63;;;10.50;88.30;;;;;;5121878;27;20074;-61
2022/04/06 01:36:46;;;;;;;25.10;13.18;;;10.50;88.20;;;;;;5088157;28;20047;-59
2022/04/06 01:39:12;;;;;;;31.00;13.80;;;10.50;88.10;;;;;;5087714;28;20039;-61
2022/04/06 01:41:38;;;;;;;32.13;13.07;;;10.50;88.20;;;;;;5121705;27;20028;-61
2022/04/06 01:44:07;;;;;;;28.67;13.02;;;10.50;88.10;;;;;;5087687;28;20031;-61
2022/04/06 01:46:33;;;;;;;25.17;13.70;;;10.50;88.00;;;;;;5096621;28;20118;-61
2022/04/06 01:54:30;;;;;;;27.77;12.15;;;10.50;87.80;;;;;;5083748;28;20098;-61
2022/04/06 01:56:56;;;;;;;24.92;11.70;;;10.50;87.90;;;;;;5113800;27;20475;-61
2022/04/06 01:59:21;;;;;;;24.65;11.90;;;10.50;88.30;;;;;;5089208;28;20036;-61
2022/04/06 02:01:52;;;;;;;24.63;10.45;;;10.50;87.60;;;;;;5087349;28;20035;-61
2022/04/06 02:04:17;;;;;;;25.52;10.93;;;10.50;87.70;;;;;;5089165;28;20069;-59
2022/04/06 02:06:43;;;;;;;27.60;12.02;;;10.50;87.50;;;;;;5089189;28;20397;-59
2022/04/06 02:09:09;;;;;;;21.88;10.45;;;10.50;87.40;;;;;;5087871;28;20032;-59
2022/04/06 02:11:36;;;;;;;27.65;11.93;;;10.50;87.30;;;;;;5087598;28;20064;-59
2022/04/06 02:14:03;;;;;;;27.42;10.88;;;10.50;87.30;;;;;;5088619;28;20376;-59
2022/04/06 02:16:29;;;;;;;23.90;10.07;;;10.50;87.30;;;;;;5085751;28;20024;-59
2022/04/06 02:18:55;;;;;;;20.13;9.40;;;10.40;87.10;;;;;;5069863;28;20497;-59
2022/04/06 02:21:20;;;;;;;21.60;9.23;;;10.40;87.10;;;;;;5096411;28;20492;-60
2022/04/06 02:23:46;;;;;;;22.65;9.38;;;10.40;87.20;;;;;;5090753;28;20040;-61
2022/04/06 02:26:11;;;;;;;20.75;9.00;;;10.40;87.10;;;;;;5092063;28;20024;-59
2022/04/06 02:28:37;;;;;;;19.27;8.93;;;10.50;87.00;;;;;;5091480;28;20408;-59
2022/04/06 02:31:03;;;;;;;20.45;8.98;;;10.50;87.00;;;;;;5091672;28;20097;-59
2022/04/06 02:33:28;;;;;;;20.88;8.57;;;10.40;86.90;;;;;;5069851;28;20044;-59
2022/04/06 02:35:54;;;;;;;20.08;8.00;;;10.40;86.90;;;;;;5090173;28;20021;-59
2022/04/06 02:38:20;;;;;;;22.60;8.95;;;10.40;87.00;;;;;;5090111;28;20372;-59
2022/04/06 02:40:46;;;;;;;18.67;8.90;;;10.40;86.80;;;;;;5089790;28;20408;-59
2022/04/06 02:43:12;;;;;;;16.92;8.15;;;10.40;86.70;;;;;;5092105;28;20043;-59
2022/04/06 02:45:38;;;;;;;23.17;8.50;;;10.40;86.60;;;;;;5090069;28;20115;-60
2022/04/06 02:48:05;;;;;;;16.95;8.23;;;10.40;86.50;;;;;;5089563;28;20565;-61
2022/04/06 02:50:31;;;;;;;21.52;8.38;;;10.40;86.50;;;;;;5092423;28;20479;-61
2022/04/06 02:52:57;;;;;;;21.88;8.18;;;10.40;86.30;;;;;;5102693;28;20256;-61
2022/04/06 02:55:23;;;;;;;18.88;8.02;;;10.40;86.10;;;;;;5091425;28;20378;-59
2022/04/06 02:57:48;;;;;;;16.95;7.50;;;10.40;86.20;;;;;;5089120;28;20518;-61
2022/04/06 03:00:15;;;;;;;17.05;7.05;;;10.30;86.10;;;;;;5091172;28;20184;-59
2022/04/06 03:02:42;;;;;;;21.25;7.93;;;10.40;86.20;;;;;;5089838;28;20027;-61
2022/04/06 03:05:08;;;;;;;19.20;7.53;;;10.40;86.10;;;;;;5091950;28;20060;-59
2022/04/06 03:07:34;;;;;;;17.88;7.68;;;10.40;85.80;;;;;;5091373;28;20120;-59
2022/04/06 03:10:01;;;;;;;19.63;7.47;;;10.30;85.80;;;;;;5091496;28;20068;-59
2022/04/06 03:12:26;;;;;;;15.77;6.88;;;10.30;85.80;;;;;;5090208;28;20035;-59
2022/04/06 03:14:52;;;;;;;18.80;7.05;;;10.30;85.70;;;;;;5092088;28;20119;-59
2022/04/06 03:17:18;;;;;;;26.90;6.80;;;10.30;85.40;;;;;;5091319;28;20055;-59
2022/04/06 03:19:44;;;;;;;17.95;7.10;;;10.30;85.30;;;;;;5090520;28;20067;-59
2022/04/06 03:22:16;;;;;;;14.82;6.28;;;10.30;85.20;;;;;;5090480;28;20479;-59
2022/04/06 03:24:42;;;;;;;17.50;6.00;;;10.30;85.00;;;;;;5091316;28;20505;-59
2022/04/06 03:27:08;;;;;;;13.25;5.72;;;10.30;84.90;;;;;;5091550;28;20056;-59
2022/04/06 03:29:33;;;;;;;16.13;5.85;;;10.30;84.90;;;;;;5091029;28;20595;-59
2022/04/06 03:31:59;;;;;;;13.43;5.95;;;10.30;84.60;;;;;;5089427;28;20532;-59
2022/04/06 03:34:24;;;;;;;16.92;6.22;;;10.30;84.60;;;;;;5091378;28;20464;-59
2022/04/06 03:36:50;;;;;;;14.88;5.50;;;10.20;83.90;;;;;;5090869;28;20020;-59
2022/04/06 03:39:16;;;;;;;14.43;5.18;;;10.20;83.90;;;;;;5091570;28;20043;-61
2022/04/06 03:41:41;;;;;;;12.68;5.43;;;10.20;83.80;;;;;;5090894;28;20032;-61
2022/04/06 03:44:07;;;;;;;12.52;5.05;;;10.20;83.70;;;;;;5091100;28;20032;-61
2022/04/06 03:46:33;;;;;;;12.95;4.55;;;10.20;83.60;;;;;;5091381;28;20398;-59
2022/04/06 03:48:59;;;;;;;16.55;4.82;;;10.20;83.60;;;;;;5078616;28;20212;-61
2022/04/06 03:51:24;;;;;;;13.50;4.45;;;10.20;83.10;;;;;;5071320;28;20132;-61
2022/04/06 03:53:50;;;;;;;16.25;4.72;;;10.20;82.90;;;;;;5069084;28;20039;-59
2022/04/06 03:56:16;;;;;;;10.50;4.35;;;10.20;82.40;;;;;;5087410;28;20020;-61
2022/04/06 03:58:41;;;;;;;15.45;4.35;;;10.20;82.20;;;;;;5091507;28;20034;-61
2022/04/06 04:01:07;;;;;;;11.95;3.97;;;10.20;82.10;;;;;;5089690;28;20039;-59
2022/04/06 04:03:33;;;;;;;11.52;4.68;;;10.20;82.00;;;;;;5090792;28;20039;-59
2022/04/06 04:05:58;;;;;;;11.68;3.80;;;10.20;81.90;;;;;;5090924;28;20430;-59
2022/04/06 04:08:26;;;;;;;9.02;3.75;;;10.10;81.50;;;;;;5082447;28;20147;-61
2022/04/06 04:10:52;;;;;;;12.73;4.03;;;10.10;81.80;;;;;;5088580;28;20031;-61
2022/04/06 04:13:18;;;;;;;14.15;3.90;;;10.10;80.90;;;;;;5084991;28;20483;-61
2022/04/06 04:15:44;;;;;;;9.32;3.40;;;10.10;80.90;;;;;;5077452;28;20024;-61
2022/04/06 04:18:10;;;;;;;9.38;3.22;;;10.10;80.80;;;;;;5089634;28;20027;-59
2022/04/06 04:20:36;;;;;;;14.55;3.65;;;10.10;80.50;;;;;;5089929;28;20085;-59
2022/04/06 04:23:02;;;;;;;9.63;3.22;;;10.10;80.70;;;;;;5089160;28;20385;-60
2022/04/06 04:25:27;;;;;;;7.88;3.22;;;10.10;80.90;;;;;;5121216;27;20443;-59
2022/04/06 04:27:53;;;;;;;9.20;3.00;;;10.10;80.90;;;;;;5087953;28;20123;-61
2022/04/06 04:30:19;;;;;;;12.27;3.20;;;10.10;81.00;;;;;;5088454;28;20085;-61
2022/04/06 04:32:45;;;;;;;10.10;2.90;;;10.10;80.90;;;;;;5088276;28;20446;-60
2022/04/06 04:35:11;;;;;;;11.63;3.03;;;10.10;80.60;;;;;;5088210;28;20028;-59
2022/04/06 04:37:36;;;;;;;10.55;2.97;;;10.00;80.50;;;;;;5086698;28;20547;-59
2022/04/06 04:40:03;;;;;;;8.77;3.08;;;10.00;80.60;;;;;;5088008;28;20020;-59
2022/04/06 04:42:30;;;;;;;9.18;3.00;;;10.00;80.50;;;;;;5097359;28;20036;-61
2022/04/06 04:44:56;;;;;;;11.98;3.33;;;10.00;80.80;;;;;;5096287;28;20028;-61
2022/04/06 04:47:22;;;;;;;5.18;2.70;;;10.00;80.60;;;;;;5086321;28;20142;-61
2022/04/06 04:49:47;;;;;;;8.88;2.72;;;10.00;80.50;;;;;;5089648;28;20032;-61
2022/04/06 04:52:13;;;;;;;10.82;3.00;;;10.00;80.50;;;;;;5090416;28;20450;-59
2022/04/06 04:54:39;;;;;;;13.27;3.40;;;10.00;80.60;;;;;;5088745;28;20041;-60
2022/04/06 04:57:05;;;;;;;8.38;2.90;;;10.00;80.30;;;;;;5089336;28;20028;-60
2022/04/06 04:59:31;;;;;;;7.05;2.70;;;10.00;80.40;;;;;;5089719;28;20147;-61
2022/04/06 05:01:57;;;;;;;11.93;3.95;;;10.00;80.40;;;;;;5090972;28;20491;-60
2022/04/06 05:04:23;;;;;;;6.05;2.75;;;10.00;80.20;;;;;;5089839;28;20039;-62
2022/04/06 05:06:48;;;;;;;10.02;2.58;;;10.00;80.10;;;;;;5088949;28;20028;-62
2022/04/06 05:09:14;;;;;;;12.50;3.42;;;10.00;80.10;;;;;;5088195;28;20055;-60
2022/04/06 05:11:40;;;;;;;10.07;3.13;;;10.00;79.80;;;;;;5089332;28;20036;-61
2022/04/06 05:14:06;;;;;;;8.82;3.40;;;9.90;79.90;;;;;;5088204;28;20516;-60
2022/04/06 05:16:32;;;;;;;7.55;3.20;;;9.90;79.90;;;;;;5088968;28;20032;-60
2022/04/06 05:18:58;;;;;;;12.32;2.83;;;9.90;80.00;;;;;;5089385;28;20039;-63
2022/04/06 05:21:24;;;;;;;11.52;3.80;;;10.00;79.90;;;;;;5088319;28;20040;-62
2022/04/06 05:23:50;;;;;;;12.02;3.60;;;10.00;79.90;;;;;;5088806;28;20036;-62
2022/04/06 05:26:16;;;;;;;7.60;3.05;;;10.00;80.00;;;;;;5088611;28;20484;-60
2022/04/06 05:28:41;;;;;;;11.70;3.65;;;10.00;80.00;;;;;;5087772;28;20089;-60
2022/04/06 05:31:07;;;;;;;10.43;4.00;;;10.00;80.10;;;;;;5099399;28;20032;-58
2022/04/06 05:33:33;;;;;;;8.18;3.35;;;10.00;80.00;;;;;;5087721;28;20106;-60
2022/04/06 05:35:58;;;;;;;10.93;4.00;;;10.00;80.10;;;;;;5088531;28;20078;-60
2022/04/06 05:38:25;;;;;;;14.07;4.90;;;10.00;80.00;;;;;;5090793;28;20032;-60
2022/04/06 05:40:51;;;;;;;10.38;3.85;;;10.10;80.00;;;;;;5095614;28;20024;-59
2022/04/06 05:43:17;;;;;;;13.15;4.07;;;10.00;80.10;;;;;;5086676;28;20379;-58
2022/04/06 05:45:43;;;;;;;9.52;3.60;;;10.00;80.20;;;;;;5099958;28;20024;-60
2022/04/06 05:48:10;;;;;;;10.57;3.70;;;10.00;80.20;;;;;;5082779;28;20048;-61
2022/04/06 05:50:35;;;;;;;12.35;3.65;;;10.10;80.20;;;;;;5086631;28;20171;-61
2022/04/06 05:53:01;;;;;;;10.13;3.45;;;10.00;79.90;;;;;;5085052;28;20020;-62
2022/04/06 05:55:27;;;;;;;10.43;3.70;;;10.00;80.10;;;;;;5079979;28;20450;-62
2022/04/06 05:57:53;;;;;;;14.25;3.75;;;10.00;80.10;;;;;;5084481;28;20032;-60
2022/04/06 06:00:19;;;;;;;9.32;2.90;;;10.00;80.10;;;;;;5083180;28;20028;-61
2022/04/06 06:02:45;;;;;;;7.50;3.15;;;10.00;80.00;;;;;;5094456;28;20020;-60
2022/04/06 06:05:11;;;;;;;9.68;3.25;;;10.00;80.10;;;;;;5084977;28;20077;-59
2022/04/06 06:07:37;;;;;;;9.77;3.42;;;10.00;80.00;;;;;;5092607;28;20020;-59
2022/04/06 06:10:04;;;;;;;14.70;3.90;;;10.00;80.00;;;;;;5092522;28;20059;-60
2022/04/06 06:12:31;;;;;;;7.53;3.17;;;10.10;80.00;;;;;;5085279;28;20088;-59
2022/04/06 06:14:56;;;;;;;13.55;4.15;;;10.10;80.10;;;;;;5091207;28;20464;-59
2022/04/06 06:17:22;;;;;;;10.93;3.95;;;10.10;80.10;;;;;;5090807;28;20051;-59
2022/04/06 06:19:48;;;;;;;12.65;4.15;;;10.10;80.20;;;;;;5086709;28;20035;-60
2022/04/06 06:22:13;;;;;;;11.20;3.55;;;10.10;80.20;;;;;;5087152;28;20085;-60
2022/04/06 06:24:39;;;;;;;9.18;3.65;;;10.10;80.10;;;;;;5091417;28;20040;-59
2022/04/06 06:27:05;;;;;;;12.30;4.03;;;10.10;80.20;;;;;;5088461;28;20043;-60
2022/04/06 06:29:32;;;;;;;13.18;4.50;;;10.10;80.00;;;;;;5086863;28;20089;-59
2022/04/06 06:31:57;;;;;;;8.80;4.00;;;10.20;80.30;;;;;;5094260;28;20134;-59
2022/04/06 06:34:23;;;;;;;10.68;4.63;;;10.20;80.30;;;;;;5077465;28;20107;-59
2022/04/06 06:36:49;;;;;;;14.98;4.97;;;10.20;80.40;;;;;;5085773;28;20403;-59
2022/04/06 06:39:15;;;;;;;14.70;5.47;;;10.20;80.50;;;;;;5084861;28;20483;-60
2022/04/06 06:41:42;;;;;;;12.45;5.38;;;10.20;80.60;;;;;;5087343;28;20047;-60
2022/04/06 06:44:08;;;;;;;19.90;4.90;;;10.20;80.70;;;;;;5094480;28;20094;-59
2022/04/06 06:46:34;;;;;;;14.40;5.10;;;10.20;80.80;;;;;;5086947;28;20107;-59
2022/04/06 06:49:03;;;;;;;17.77;5.32;;;10.20;80.80;;;;;;5095015;28;20119;-59
2022/04/06 06:51:32;;;;;;;19.42;5.80;;;10.20;81.00;;;;;;5087208;28;20028;-60
2022/04/06 06:53:59;;;;;;;16.33;5.70;;;10.20;81.10;;;;;;5087354;28;20051;-61
2022/04/06 06:56:25;;;;;;;18.65;5.72;;;10.20;81.10;;;;;;5085849;28;20488;-61
2022/04/06 06:58:51;;;;;;;13.65;5.07;;;10.20;81.00;;;;;;5093147;28;20482;-61
2022/04/06 07:01:16;;;;;;;16.80;5.72;;;10.20;81.10;;;;;;5088678;28;20031;-61
2022/04/06 07:03:42;;;;;;;16.27;5.28;;;10.20;81.20;;;;;;5089353;28;20032;-61
2022/04/06 07:06:08;;;;;;;17.50;6.00;;;10.20;81.00;;;;;;5087085;28;20425;-61
2022/04/06 07:08:33;;;;;;;18.75;5.32;;;10.10;81.10;;;;;;5092401;28;20509;-62
2022/04/06 07:10:59;;;;;;;16.30;4.95;;;10.10;81.10;;;;;;5096631;28;20103;-61
2022/04/06 07:13:25;;;;;;;13.75;4.45;;;10.20;81.00;;;;;;5100603;28;20035;-61
2022/04/06 07:15:51;;;;;;;14.07;4.68;;;10.20;80.90;;;;;;5097899;28;20491;-61
2022/04/06 07:18:18;;;;;;;16.02;5.20;;;10.20;80.70;;;;;;5091120;28;20024;-61
2022/04/06 07:20:44;;;;;;;10.45;3.78;;;10.30;80.70;;;;;;5100966;28;20028;-61
2022/04/06 07:23:10;;;;;;;8.18;4.40;;;10.30;80.40;;;;;;5105488;28;20035;-60
2022/04/06 07:25:36;;;;;;;11.23;3.70;;;10.30;80.30;;;;;;5109634;28;20035;-60
2022/04/06 07:28:03;;;;;;;12.90;3.67;;;10.30;79.80;;;;;;5095022;28;20036;-60
2022/04/06 07:30:29;;;;;;;15.63;3.83;;;10.30;79.90;;;;;;5089790;28;20030;-59
2022/04/06 07:32:57;;;;;;;12.02;3.40;;;10.30;79.60;;;;;;5096832;28;20028;-60
2022/04/06 07:35:22;;;;;;;14.00;3.15;;;10.40;79.10;;;;;;5107940;28;20517;-60
2022/04/06 07:37:50;;;;;;;10.50;3.10;;;10.30;78.60;;;;;;5096545;28;20032;-59
2022/04/06 07:40:18;;;;;;;14.30;3.17;;;10.30;78.30;;;;;;5105604;28;20047;-59
2022/04/06 07:42:46;;;;;;;9.18;2.72;;;10.30;78.10;;;;;;5092019;28;20024;-60
2022/04/06 07:45:14;;;;;;;7.18;2.65;;;10.30;77.90;;;;;;5090060;28;20043;-60
2022/04/06 07:47:41;;;;;;;9.35;2.63;;;10.40;78.00;;;;;;5089754;28;20035;-61
2022/04/06 07:50:08;;;;;;;7.57;2.30;;;10.40;77.70;;;;;;5077414;28;20565;-62
2022/04/06 07:52:35;;;;;;;8.48;2.55;;;10.40;77.20;;;;;;5078935;28;20020;-61
2022/04/06 07:55:01;;;;;;;6.60;2.15;;;10.40;77.20;;;;;;5077937;28;20066;-60
2022/04/06 07:57:28;;;;;;;5.10;2.13;;;10.40;76.40;;;;;;5086106;28;20020;-60
2022/04/06 07:59:55;;;;;;;9.60;2.45;;;10.40;76.40;;;;;;5089569;28;20412;-60
2022/04/06 08:02:20;;;;;;;8.02;2.47;;;10.50;76.60;;;;;;5089103;28;20150;-62
2022/04/06 08:04:46;;;;;;;10.25;2.40;;;10.50;75.70;;;;;;5090085;28;20114;-62
2022/04/06 08:07:12;;;;;;;9.10;2.78;;;10.50;74.90;;;;;;5088475;28;20039;-62
2022/04/06 08:09:38;;;;;;;3.72;1.80;;;10.50;74.70;;;;;;5089323;28;20036;-61
2022/04/06 08:12:04;;;;;;;5.80;1.85;;;10.60;75.00;;;;;;5089422;28;20055;-61
2022/04/06 08:14:30;;;;;;;8.68;2.00;;;10.60;75.00;;;;;;5090255;28;20623;-59
2022/04/06 08:16:56;;;;;;;5.40;2.08;;;10.60;74.80;;;;;;5090724;28;20051;-60
2022/04/06 08:19:23;;;;;;;9.88;1.92;;;10.60;74.30;;;;;;5088417;28;20470;-61
2022/04/06 08:21:49;;;;;;;9.73;2.03;;;10.60;74.40;;;;;;5120549;27;20029;-61
2022/04/06 08:24:15;;;;;;;7.45;1.90;;;10.60;74.30;;;;;;5088341;28;20069;-60
2022/04/06 08:26:41;;;;;;;6.43;1.80;;;10.70;74.60;;;;;;5089421;28;20040;-63
2022/04/06 08:29:07;;;;;;;6.30;1.90;;;10.70;74.30;;;;;;5089684;28;20044;-62
2022/04/06 08:31:33;;;;;;;6.07;1.80;;;10.80;74.60;;;;;;5089993;28;20034;-59
2022/04/06 08:33:58;;;;;;;6.18;1.80;;;10.80;73.60;;;;;;5090313;28;20103;-59
2022/04/06 08:36:24;;;;;;;5.47;2.10;;;10.80;73.10;;;;;;5079259;28;20029;-59
2022/04/06 08:38:50;;;;;;;9.45;2.05;;;10.70;73.50;;;;;;5051928;28;20025;-61
2022/04/06 08:41:16;;;;;;;8.70;1.90;;;10.80;73.90;;;;;;5080629;28;20457;-60
2022/04/06 08:43:42;;;;;;;8.70;2.47;;;10.70;73.60;;;;;;5084956;28;20028;-59
2022/04/06 08:46:12;;;;;;;9.25;2.47;;;10.80;74.20;;;;;;5086779;28;20115;-61
2022/04/06 08:48:38;;;;;;;9.20;2.45;;;10.70;74.00;;;;;;5086388;28;20056;-61
2022/04/06 08:51:09;;;;;;;7.55;2.30;;;10.70;74.40;;;;;;5088340;28;20024;-61
2022/04/06 08:53:39;;;;;;;9.18;2.50;;;10.70;74.80;;;;;;5088118;28;20024;-62
2022/04/06 08:56:06;;;;;;;7.78;2.45;;;10.70;75.20;;;;;;5087240;28;20063;-61
2022/04/06 08:58:32;;;;;;;7.10;2.33;;;10.70;75.40;;;;;;5088951;28;20028;-61
2022/04/06 09:00:58;;;;;;;8.90;2.60;;;10.70;75.90;;;;;;5088502;28;20097;-61
2022/04/06 09:03:24;;;;;;;8.90;2.40;;;10.70;76.40;;;;;;5088967;28;20044;-61
2022/04/06 09:06:13;;;;;;;6.75;3.00;;;10.60;77.10;;;;;;5088805;28;20032;-61
2022/04/06 09:08:44;;;;;;;8.07;2.90;;;10.60;77.90;;;;;;5088856;28;20024;-61
2022/04/06 09:11:10;;;;;;;8.95;3.42;;;10.60;78.50;;;;;;5087743;28;20043;-60
2022/04/06 09:13:37;;;;;;;10.95;3.33;;;10.60;79.00;;;;;;5089227;28;20119;-60
2022/04/06 09:16:06;;;;;;;9.23;3.85;;;10.60;79.30;;;;;;5087679;28;20082;-60
2022/04/06 09:18:46;;;;;;;12.57;4.07;;;10.50;80.20;;;;;;5089591;28;20028;-61
2022/04/06 09:21:15;;;;;;;9.20;3.25;;;10.50;80.20;;;;;;5090073;28;20463;-61
2022/04/06 09:23:43;;;;;;;11.10;3.90;;;10.50;80.50;;;;;;5101167;28;20031;-60
2022/04/06 09:26:11;;;;;;;8.20;3.70;;;10.50;80.80;;;;;;5088917;28;20393;-61
2022/04/06 09:28:41;;;;;;;9.50;4.03;;;10.50;81.20;;;;;;5089584;28;20031;-60
2022/04/06 09:31:08;;;;;;;9.27;4.38;;;10.50;81.60;;;;;;5088798;28;20119;-59
2022/04/06 09:33:41;;;;;;;9.23;3.80;;;10.50;81.80;;;;;;5089209;28;20486;-60
2022/04/06 09:36:20;;;;;;;7.63;3.92;;;10.40;82.10;;;;;;5088579;28;20060;-60
2022/04/06 09:38:51;;;;;;;10.05;4.68;;;10.40;82.30;;;;;;5087645;28;20032;-61
2022/04/06 09:41:19;;;;;;;10.75;4.70;;;10.40;82.60;;;;;;5089398;28;20023;-61
2022/04/06 09:43:46;;;;;;;7.97;4.43;;;10.30;82.70;;;;;;5088997;28;20032;-59
2022/04/06 09:49:01;;;;;;;11.18;4.82;;;10.30;83.20;;;;;;5088606;28;20078;-61
2022/04/06 09:51:29;;;;;;;11.77;5.10;;;10.30;83.60;;;;;;5089024;28;20052;-61
2022/04/06 09:53:55;;;;;;;10.23;5.38;;;10.20;84.40;;;;;;5087198;28;20454;-59
2022/04/06 09:56:21;;;;;;;12.80;5.20;;;10.20;85.00;;;;;;5088651;28;20044;-59
2022/04/06 09:58:49;;;;;;;16.02;6.40;;;10.20;85.50;;;;;;5088369;28;20024;-59
2022/04/06 10:01:16;;;;;;;14.02;5.13;;;10.20;85.80;;;;;;5101601;28;20032;-61
2022/04/06 10:03:48;;;;;;;9.93;5.72;;;10.20;85.80;;;;;;5107466;28;20474;-61
2022/04/06 10:06:14;;;;;;;11.90;5.50;;;10.20;85.90;;;;;;5107785;28;20016;-61
2022/04/06 10:08:42;;;;;;;11.77;5.63;;;10.20;86.10;;;;;;5105223;28;20157;-62
2022/04/06 10:11:08;;;;;;;12.70;5.68;;;10.20;86.50;;;;;;5095443;28;20031;-61
2022/04/06 10:13:34;;;;;;;15.98;6.65;;;10.20;86.70;;;;;;5108485;28;20022;-59
2022/04/06 10:16:00;;;;;;;12.43;6.65;;;10.20;87.10;;;;;;5108493;28;20032;-59
2022/04/06 10:18:27;;;;;;;12.30;6.30;;;10.20;87.20;;;;;;5107571;28;20530;-60
2022/04/06 10:21:14;;;;;;;14.10;6.53;;;10.20;87.60;;;;;;5109145;28;20420;-59
2022/04/06 10:23:46;;;;;;;10.05;6.13;;;10.20;87.60;;;;;;5104323;28;20024;-59
2022/04/06 10:26:36;;;;;;;12.68;6.95;;;10.20;87.70;;;;;;5088506;28;20116;-60
2022/04/06 10:29:05;;;;;;;17.02;8.05;;;10.20;87.90;;;;;;5099713;28;20088;-61
2022/04/06 10:31:31;;;;;;;17.50;7.75;;;10.10;88.10;;;;;;5088966;28;20525;-61
2022/04/06 10:34:19;;;;;;;13.02;6.78;;;10.10;88.40;;;;;;5088316;28;20435;-59
2022/04/06 10:37:03;;;;;;;12.18;6.95;;;10.10;88.60;;;;;;5086972;28;20037;-60
2022/04/06 10:39:29;;;;;;;11.15;6.28;;;10.10;88.80;;;;;;5088025;28;20407;-60
2022/04/06 10:42:16;;;;;;;10.75;7.10;;;10.10;88.70;;;;;;5089220;28;20032;-60
2022/04/06 10:44:43;;;;;;;12.75;6.88;;;10.10;88.60;;;;;;5091499;28;20043;-60
2022/04/06 10:47:11;;;;;;;12.55;7.10;;;10.10;88.70;;;;;;5073537;28;20076;-61
2022/04/06 10:49:37;;;;;;;16.42;7.13;;;10.10;88.70;;;;;;5077867;28;20052;-61
2022/04/06 10:52:23;;;;;;;13.10;6.90;;;10.10;88.80;;;;;;5091384;28;20028;-61
2022/04/06 10:54:51;;;;;;;10.52;6.22;;;10.10;89.10;;;;;;5079488;28;20075;-61
2022/04/06 10:57:18;;;;;;;14.20;7.05;;;10.10;89.20;;;;;;5084678;28;20024;-60
2022/04/06 11:00:11;;;;;;;12.60;7.13;;;10.10;89.40;;;;;;5090793;28;20047;-61
2022/04/06 11:02:46;;;;;;;17.92;8.20;;;10.10;89.50;;;;;;5090311;28;20063;-61
2022/04/06 11:05:12;;;;;;;13.13;7.47;;;10.10;89.70;;;;;;5091260;28;20024;-61
2022/04/06 11:10:29;;;;;;;14.90;7.90;;;10.10;90.00;;;;;;5088174;28;20558;-61
2022/04/06 11:13:00;;;;;;;11.10;7.75;;;10.10;90.00;;;;;;5088407;28;20063;-60
2022/04/06 11:15:37;;;;;;;12.57;7.55;;;10.10;90.10;;;;;;5089411;28;20043;-59
2022/04/06 11:18:04;;;;;;;11.77;6.72;;;10.10;90.10;;;;;;5084618;28;20023;-60
2022/04/06 11:20:32;;;;;;;18.10;8.55;;;10.10;90.20;;;;;;5077709;28;20032;-59
2022/04/06 11:22:59;;;;;;;13.70;8.05;;;10.10;90.30;;;;;;5090043;28;20035;-60
2022/04/06 11:25:30;;;;;;;10.57;7.00;;;10.10;90.40;;;;;;5091312;28;20048;-60
2022/04/06 11:28:11;;;;;;;10.60;7.20;;;10.10;90.40;;;;;;5090633;28;20083;-61
2022/04/06 11:30:43;;;;;;;12.55;7.90;;;10.20;90.40;;;;;;5088422;28;20444;-62
2022/04/06 11:33:09;;;;;;;11.10;7.38;;;10.20;90.50;;;;;;5092102;28;20017;-59
2022/04/06 11:35:36;;;;;;;14.88;8.25;;;10.20;90.40;;;;;;5090475;28;20068;-59
2022/04/06 11:38:07;;;;;;;13.80;7.25;;;10.20;90.30;;;;;;5091021;28;20081;-59
2022/04/06 11:40:34;;;;;;;12.32;7.55;;;10.20;90.20;;;;;;5090543;28;20022;-59
2022/04/06 11:43:04;;;;;;;11.98;7.40;;;10.30;90.20;;;;;;5090920;28;20114;-59
2022/04/06 11:45:44;;;;;;;9.55;7.07;;;10.30;90.20;;;;;;5082911;28;20130;-61
2022/04/06 11:48:15;;;;;;;14.07;6.85;;;10.40;90.10;;;;;;5076299;28;20055;-61
2022/04/06 11:50:43;;;;;;;11.43;6.47;;;10.40;90.00;;;;;;5087853;28;20050;-61
2022/04/06 11:53:15;;;;;;;13.57;5.82;;;10.40;89.50;;;;;;5080941;28;20025;-61
2022/04/06 11:55:49;;;;;;;;;;;10.40;89.30;;;;;;5090517;28;20024;-61
2022/04/06 11:58:38;;;;;;;9.95;5.85;;;10.40;89.00;;;;;;5085958;28;19955;-60
2022/04/06 12:01:16;;;;;;;14.75;5.38;;;10.40;88.70;;;;;;5088548;28;20498;-60
2022/04/06 12:03:44;;;;;;;8.15;5.35;;;10.40;88.70;;;;;;5091611;28;20024;-61
2022/04/06 12:06:11;;;;;;;9.93;5.30;;;10.40;88.40;;;;;;5090583;28;20020;-59
2022/04/06 12:08:39;;;;;;;8.63;5.35;;;10.40;88.50;;;;;;5090103;28;20032;-60
2022/04/06 12:11:05;;;;;;;11.48;5.38;;;10.40;88.70;;;;;;5089630;28;20035;-59
2022/04/06 12:13:32;;;;;;;9.43;5.57;;;10.50;88.60;;;;;;5090395;28;20482;-59
2022/04/06 12:15:59;;;;;;;8.88;5.35;;;10.50;88.50;;;;;;5089282;28;20198;-59
2022/04/06 12:18:26;;;;;;;10.73;5.40;;;10.60;88.40;;;;;;5085318;28;20028;-59
2022/04/06 12:20:52;;;;;;;11.57;6.78;;;10.50;88.10;;;;;;5089448;28;20048;-59
2022/04/06 12:23:19;;;;;;;10.73;5.45;;;10.60;88.10;;;;;;5088607;28;20031;-60
2022/04/06 12:25:46;;;;;;;10.65;5.35;;;10.60;88.00;;;;;;5088891;28;20061;-61
2022/04/06 12:28:26;;;;;;;11.60;6.22;;;10.60;87.40;;;;;;5088141;28;20146;-61
2022/04/06 12:31:06;;;;;;;10.30;6.25;;;10.70;87.10;;;;;;5089406;28;20036;-60
2022/04/06 12:33:39;;;;;;;10.07;4.85;;;10.60;86.80;;;;;;5089981;28;20024;-61
2022/04/06 12:36:12;;;;;;;9.15;5.10;;;10.70;86.70;;;;;;5088286;28;20108;-61
2022/04/06 12:38:40;;;;;;;9.43;5.72;;;10.70;86.60;;;;;;5099628;28;20066;-60
2022/04/06 12:41:11;;;;;;;9.82;4.97;;;10.70;86.50;;;;;;5090692;28;20426;-59
2022/04/06 12:43:38;;;;;;;14.63;5.38;;;10.80;85.90;;;;;;5090127;28;20107;-59
2022/04/06 12:46:04;;;;;;;9.70;4.88;;;10.80;85.60;;;;;;5089612;28;20501;-60
2022/04/06 12:48:30;;;;;;;9.57;5.25;;;10.80;85.30;;;;;;5089501;28;20087;-60
2022/04/06 12:50:57;;;;;;;6.95;4.30;;;10.80;85.00;;;;;;5088897;28;20352;-61
2022/04/06 12:53:23;;;;;;;11.88;5.00;;;10.80;84.70;;;;;;5090528;28;20047;-60